createdAt,value
2017-07-29T00:00:14.713Z,1010.98
2017-07-29T00:00:55.602Z,1010.97
2017-07-29T00:01:36.504Z,1010.96
2017-07-29T00:02:17.390Z,1010.96
2017-07-29T00:02:58.274Z,1010.95
2017-07-29T00:03:39.160Z,1010.97
2017-07-29T00:04:20.045Z,1010.95
2017-07-29T00:05:00.931Z,1010.95
2017-07-29T00:05:41.825Z,1010.92
2017-07-29T00:06:22.715Z,1010.95
2017-07-29T00:07:03.596Z,1010.97
2017-07-29T00:07:44.478Z,1010.99
2017-07-29T00:08:25.367Z,1010.98
2017-07-29T00:09:06.259Z,1010.97
2017-07-29T00:09:47.153Z,1011.01
2017-07-29T00:10:28.037Z,1011
2017-07-29T00:11:08.932Z,1010.99
2017-07-29T00:11:49.833Z,1011.01
2017-07-29T00:12:30.729Z,1010.98
2017-07-29T00:13:11.624Z,1011
2017-07-29T00:13:52.522Z,1010.97
2017-07-29T00:14:33.396Z,1010.97
2017-07-29T00:15:14.288Z,1010.99
2017-07-29T00:15:55.176Z,1010.95
2017-07-29T00:16:36.068Z,1010.96
2017-07-29T00:17:16.945Z,1010.96
2017-07-29T00:17:57.837Z,1010.99
2017-07-29T00:18:38.738Z,1011.01
2017-07-29T00:19:19.624Z,1011.01
2017-07-29T00:20:00.496Z,1011.03
2017-07-29T00:20:41.377Z,1011.02
2017-07-29T00:21:22.268Z,1011.05
2017-07-29T00:22:03.155Z,1011.04
2017-07-29T00:22:44.045Z,1011.08
2017-07-29T00:23:24.952Z,1011.04
2017-07-29T00:24:05.842Z,1011.05
2017-07-29T00:24:46.738Z,1011.04
2017-07-29T00:25:27.613Z,1011.06
2017-07-29T00:26:08.505Z,1011.07
2017-07-29T00:26:49.394Z,1011.01
2017-07-29T00:27:30.276Z,1011.08
2017-07-29T00:28:11.149Z,1011.13
2017-07-29T00:28:52.026Z,1011.1
2017-07-29T00:29:32.914Z,1011.06
2017-07-29T00:30:13.806Z,1011.11
2017-07-29T00:30:54.703Z,1011.1
2017-07-29T00:31:35.575Z,1011.12
2017-07-29T00:32:16.464Z,1011.07
2017-07-29T00:32:57.350Z,1011.12
2017-07-29T00:33:38.239Z,1011.11
2017-07-29T00:34:19.140Z,1011.06
2017-07-29T00:35:00.026Z,1011.1
2017-07-29T00:35:40.909Z,1011.06
2017-07-29T00:36:21.814Z,1011.06
2017-07-29T00:37:02.692Z,1011.06
2017-07-29T00:37:43.585Z,1011.05
2017-07-29T00:38:24.476Z,1011.03
2017-07-29T00:39:05.364Z,1011.05
2017-07-29T00:39:46.256Z,1010.99
2017-07-29T00:40:27.145Z,1010.96
2017-07-29T00:41:08.046Z,1011
2017-07-29T00:41:48.933Z,1010.95
2017-07-29T00:42:29.823Z,1010.89
2017-07-29T00:43:10.712Z,1010.91
2017-07-29T00:43:51.599Z,1010.9
2017-07-29T00:44:32.486Z,1010.92
2017-07-29T00:45:13.378Z,1010.94
2017-07-29T00:45:54.275Z,1010.89
2017-07-29T00:46:35.142Z,1010.92
2017-07-29T00:47:16.024Z,1010.94
2017-07-29T00:47:56.940Z,1010.95
2017-07-29T00:48:37.830Z,1010.94
2017-07-29T00:49:18.701Z,1010.99
2017-07-29T00:49:59.582Z,1010.96
2017-07-29T00:50:40.474Z,1010.99
2017-07-29T00:51:21.364Z,1010.98
2017-07-29T00:52:02.251Z,1010.94
2017-07-29T00:52:43.137Z,1010.98
2017-07-29T00:53:24.028Z,1010.99
2017-07-29T00:54:04.908Z,1010.91
2017-07-29T00:54:45.799Z,1010.94
2017-07-29T00:55:26.704Z,1010.94
2017-07-29T00:56:07.587Z,1010.95
2017-07-29T00:56:48.477Z,1010.93
2017-07-29T00:57:29.384Z,1010.95
2017-07-29T00:58:10.250Z,1010.96
2017-07-29T00:58:51.147Z,1010.93
2017-07-29T00:59:32.914Z,1010.95
2017-07-29T01:00:13.807Z,1010.95
2017-07-29T01:00:54.697Z,1010.97
2017-07-29T01:01:35.586Z,1010.98
2017-07-29T01:02:16.479Z,1010.99
2017-07-29T01:02:57.390Z,1011.01
2017-07-29T01:03:38.250Z,1011
2017-07-29T01:04:19.121Z,1011
2017-07-29T01:05:00.013Z,1011
2017-07-29T01:05:40.908Z,1010.99
2017-07-29T01:06:21.800Z,1011
2017-07-29T01:07:02.688Z,1010.99
2017-07-29T01:07:43.580Z,1010.99
2017-07-29T01:08:24.455Z,1010.95
2017-07-29T01:09:05.341Z,1010.98
2017-07-29T01:09:46.234Z,1010.96
2017-07-29T01:10:27.124Z,1010.99
2017-07-29T01:11:08.010Z,1011.04
2017-07-29T01:11:48.907Z,1010.98
2017-07-29T01:12:29.792Z,1010.99
2017-07-29T01:13:10.681Z,1011.06
2017-07-29T01:13:51.577Z,1011.03
2017-07-29T01:14:32.476Z,1010.98
2017-07-29T01:15:13.360Z,1010.98
2017-07-29T01:15:54.236Z,1010.96
2017-07-29T01:16:35.126Z,1010.93
2017-07-29T01:17:16.016Z,1010.92
2017-07-29T01:17:56.908Z,1010.93
2017-07-29T01:18:37.818Z,1010.98
2017-07-29T01:19:18.692Z,1011
2017-07-29T01:19:59.573Z,1011.01
2017-07-29T01:20:40.482Z,1010.99
2017-07-29T01:21:21.396Z,1011.02
2017-07-29T01:22:02.288Z,1011.04
2017-07-29T01:22:43.176Z,1011.05
2017-07-29T01:23:24.061Z,1011.06
2017-07-29T01:24:04.955Z,1011.04
2017-07-29T01:24:45.850Z,1011.03
2017-07-29T01:25:26.744Z,1011.05
2017-07-29T01:26:07.632Z,1011.01
2017-07-29T01:26:48.534Z,1011.02
2017-07-29T01:27:29.422Z,1010.98
2017-07-29T01:28:10.310Z,1010.95
2017-07-29T01:28:51.202Z,1010.96
2017-07-29T01:29:32.084Z,1011.03
2017-07-29T01:30:12.981Z,1010.98
2017-07-29T01:30:53.875Z,1011.05
2017-07-29T01:31:34.759Z,1011.02
2017-07-29T01:32:15.669Z,1011.07
2017-07-29T01:32:56.552Z,1011.06
2017-07-29T01:33:37.447Z,1011.04
2017-07-29T01:34:18.371Z,1011.05
2017-07-29T01:34:59.257Z,1011.02
2017-07-29T01:35:40.148Z,1011.03
2017-07-29T01:36:21.036Z,1011.03
2017-07-29T01:37:01.914Z,1010.99
2017-07-29T01:37:42.811Z,1011
2017-07-29T01:38:23.706Z,1010.98
2017-07-29T01:39:04.599Z,1011.01
2017-07-29T01:39:45.491Z,1011.01
2017-07-29T01:40:26.381Z,1010.99
2017-07-29T01:41:07.258Z,1010.96
2017-07-29T01:41:48.152Z,1010.95
2017-07-29T01:42:29.042Z,1010.93
2017-07-29T01:43:09.933Z,1010.93
2017-07-29T01:43:50.823Z,1010.96
2017-07-29T01:44:31.712Z,1010.97
2017-07-29T01:45:12.613Z,1010.98
2017-07-29T01:45:53.499Z,1010.98
2017-07-29T01:46:34.369Z,1010.96
2017-07-29T01:47:15.262Z,1010.98
2017-07-29T01:47:56.177Z,1010.96
2017-07-29T01:48:37.069Z,1010.93
2017-07-29T01:49:17.978Z,1010.98
2017-07-29T01:49:58.865Z,1010.95
2017-07-29T01:50:39.753Z,1010.9
2017-07-29T01:51:20.637Z,1010.92
2017-07-29T01:52:01.528Z,1010.9
2017-07-29T01:52:42.421Z,1010.92
2017-07-29T01:53:23.316Z,1010.88
2017-07-29T01:54:04.205Z,1010.87
2017-07-29T01:54:45.105Z,1010.85
2017-07-29T01:55:25.999Z,1010.84
2017-07-29T01:56:06.885Z,1010.86
2017-07-29T01:56:47.773Z,1010.85
2017-07-29T01:57:28.674Z,1010.86
2017-07-29T01:58:09.551Z,1010.84
2017-07-29T01:58:50.429Z,1010.83
2017-07-29T01:59:31.324Z,1010.85
2017-07-29T02:00:12.205Z,1010.81
2017-07-29T02:00:53.101Z,1010.79
2017-07-29T02:01:33.994Z,1010.79
2017-07-29T02:02:14.883Z,1010.81
2017-07-29T02:02:55.773Z,1010.79
2017-07-29T02:03:36.676Z,1010.8
2017-07-29T02:04:17.554Z,1010.83
2017-07-29T02:04:58.445Z,1010.81
2017-07-29T02:05:39.342Z,1010.79
2017-07-29T02:06:20.231Z,1010.79
2017-07-29T02:07:01.114Z,1010.8
2017-07-29T02:07:41.998Z,1010.77
2017-07-29T02:08:22.898Z,1010.78
2017-07-29T02:09:03.779Z,1010.82
2017-07-29T02:09:44.661Z,1010.82
2017-07-29T02:10:25.565Z,1010.81
2017-07-29T02:11:06.444Z,1010.83
2017-07-29T02:11:47.333Z,1010.79
2017-07-29T02:12:28.225Z,1010.82
2017-07-29T02:13:09.125Z,1010.78
2017-07-29T02:13:49.995Z,1010.8
2017-07-29T02:14:30.881Z,1010.75
2017-07-29T02:15:11.777Z,1010.75
2017-07-29T02:15:52.658Z,1010.73
2017-07-29T02:16:33.544Z,1010.74
2017-07-29T02:17:14.439Z,1010.77
2017-07-29T02:17:55.326Z,1010.74
2017-07-29T02:18:36.214Z,1010.75
2017-07-29T02:19:17.115Z,1010.78
2017-07-29T02:19:58.008Z,1010.75
2017-07-29T02:20:38.896Z,1010.77
2017-07-29T02:21:19.792Z,1010.77
2017-07-29T02:22:00.676Z,1010.77
2017-07-29T02:22:41.589Z,1010.79
2017-07-29T02:23:22.499Z,1010.77
2017-07-29T02:24:03.379Z,1010.82
2017-07-29T02:24:44.270Z,1010.78
2017-07-29T02:25:25.174Z,1010.82
2017-07-29T02:26:06.059Z,1010.81
2017-07-29T02:26:46.973Z,1010.81
2017-07-29T02:27:27.852Z,1010.81
2017-07-29T02:28:08.745Z,1010.82
2017-07-29T02:28:49.645Z,1010.81
2017-07-29T02:29:30.532Z,1010.81
2017-07-29T02:30:11.415Z,1010.81
2017-07-29T02:30:52.320Z,1010.81
2017-07-29T02:31:33.208Z,1010.8
2017-07-29T02:32:14.101Z,1010.81
2017-07-29T02:32:55.001Z,1010.82
2017-07-29T02:33:35.885Z,1010.82
2017-07-29T02:34:16.762Z,1010.83
2017-07-29T02:34:57.653Z,1010.82
2017-07-29T02:35:38.559Z,1010.84
2017-07-29T02:36:19.440Z,1010.84
2017-07-29T02:37:00.318Z,1010.85
2017-07-29T02:37:41.212Z,1010.87
2017-07-29T02:38:22.100Z,1010.83
2017-07-29T02:39:02.993Z,1010.83
2017-07-29T02:39:43.888Z,1010.84
2017-07-29T02:40:24.773Z,1010.83
2017-07-29T02:41:05.664Z,1010.8
2017-07-29T02:41:46.565Z,1010.77
2017-07-29T02:42:27.448Z,1010.78
2017-07-29T02:43:08.334Z,1010.78
2017-07-29T02:43:49.226Z,1010.78
2017-07-29T02:44:30.116Z,1010.78
2017-07-29T02:45:10.976Z,1010.75
2017-07-29T02:45:51.850Z,1010.78
2017-07-29T02:46:32.739Z,1010.78
2017-07-29T02:47:13.634Z,1010.77
2017-07-29T02:47:54.515Z,1010.8
2017-07-29T02:48:35.400Z,1010.79
2017-07-29T02:49:16.295Z,1010.82
2017-07-29T02:49:57.182Z,1010.77
2017-07-29T02:50:38.073Z,1010.79
2017-07-29T02:51:18.976Z,1010.81
2017-07-29T02:51:59.875Z,1010.81
2017-07-29T02:52:40.774Z,1010.86
2017-07-29T02:53:21.682Z,1010.84
2017-07-29T02:54:02.552Z,1010.82
2017-07-29T02:54:43.435Z,1010.82
2017-07-29T02:55:24.338Z,1010.87
2017-07-29T02:56:05.219Z,1010.88
2017-07-29T02:56:46.107Z,1010.91
2017-07-29T02:57:27.001Z,1010.91
2017-07-29T02:58:07.888Z,1010.93
2017-07-29T02:58:48.775Z,1010.96
2017-07-29T02:59:29.674Z,1010.96
2017-07-29T03:00:10.567Z,1010.94
2017-07-29T03:00:51.444Z,1010.93
2017-07-29T03:01:32.351Z,1010.9
2017-07-29T03:02:13.242Z,1010.89
2017-07-29T03:02:54.136Z,1010.87
2017-07-29T03:03:35.033Z,1010.86
2017-07-29T03:04:15.921Z,1010.87
2017-07-29T03:04:56.804Z,1010.8
2017-07-29T03:05:37.703Z,1010.82
2017-07-29T03:06:18.594Z,1010.76
2017-07-29T03:06:59.471Z,1010.73
2017-07-29T03:07:40.363Z,1010.78
2017-07-29T03:08:21.258Z,1010.81
2017-07-29T03:09:02.141Z,1010.83
2017-07-29T03:09:43.050Z,1010.81
2017-07-29T03:10:23.948Z,1010.85
2017-07-29T03:11:04.837Z,1010.82
2017-07-29T03:11:45.733Z,1010.82
2017-07-29T03:12:26.626Z,1010.84
2017-07-29T03:13:07.500Z,1010.8
2017-07-29T03:13:48.389Z,1010.78
2017-07-29T03:14:29.290Z,1010.81
2017-07-29T03:15:10.158Z,1010.77
2017-07-29T03:15:51.075Z,1010.8
2017-07-29T03:16:31.977Z,1010.77
2017-07-29T03:17:12.862Z,1010.78
2017-07-29T03:17:53.771Z,1010.76
2017-07-29T03:18:34.663Z,1010.74
2017-07-29T03:19:15.549Z,1010.77
2017-07-29T03:19:56.445Z,1010.78
2017-07-29T03:20:37.327Z,1010.81
2017-07-29T03:21:18.214Z,1010.81
2017-07-29T03:21:59.117Z,1010.77
2017-07-29T03:22:39.996Z,1010.76
2017-07-29T03:23:20.879Z,1010.75
2017-07-29T03:24:01.780Z,1010.77
2017-07-29T03:24:42.681Z,1010.77
2017-07-29T03:25:23.556Z,1010.76
2017-07-29T03:26:04.439Z,1010.75
2017-07-29T03:26:45.361Z,1010.73
2017-07-29T03:27:26.237Z,1010.73
2017-07-29T03:28:07.112Z,1010.76
2017-07-29T03:28:48.010Z,1010.74
2017-07-29T03:29:28.905Z,1010.78
2017-07-29T03:30:09.798Z,1010.74
2017-07-29T03:30:50.671Z,1010.8
2017-07-29T03:31:31.587Z,1010.82
2017-07-29T03:32:12.449Z,1010.82
2017-07-29T03:32:53.360Z,1010.8
2017-07-29T03:33:34.250Z,1010.78
2017-07-29T03:34:15.133Z,1010.77
2017-07-29T03:34:56.034Z,1010.76
2017-07-29T03:35:36.964Z,1010.77
2017-07-29T03:36:17.887Z,1010.75
2017-07-29T03:36:58.749Z,1010.73
2017-07-29T03:37:39.635Z,1010.75
2017-07-29T03:38:20.536Z,1010.79
2017-07-29T03:39:01.418Z,1010.76
2017-07-29T03:39:42.286Z,1010.82
2017-07-29T03:41:20.693Z,1010.8
2017-07-29T03:42:01.578Z,1010.8
2017-07-29T03:42:42.469Z,1010.8
2017-07-29T03:43:23.361Z,1010.84
2017-07-29T03:44:04.229Z,1010.83
2017-07-29T03:44:45.093Z,1010.83
2017-07-29T03:45:25.970Z,1010.81
2017-07-29T03:46:06.864Z,1010.85
2017-07-29T03:46:47.808Z,1010.82
2017-07-29T03:47:28.703Z,1010.82
2017-07-29T03:48:09.576Z,1010.87
2017-07-29T03:50:19.586Z,1010.87
2017-07-29T03:51:00.478Z,1010.86
2017-07-29T03:51:41.349Z,1010.9
2017-07-29T03:52:22.231Z,1010.93
2017-07-29T03:53:03.108Z,1010.91
2017-07-29T03:53:44.007Z,1010.91
2017-07-29T03:54:24.887Z,1010.9
2017-07-29T03:55:05.783Z,1010.92
2017-07-29T03:55:46.695Z,1010.94
2017-07-29T03:56:27.561Z,1010.94
2017-07-29T03:57:08.429Z,1010.93
2017-07-29T03:57:49.330Z,1010.94
2017-07-29T03:58:30.214Z,1010.96
2017-07-29T03:59:11.092Z,1010.95
2017-07-29T03:59:51.980Z,1010.95
2017-07-29T04:00:32.869Z,1010.98
2017-07-29T04:01:13.753Z,1010.96
2017-07-29T04:01:54.630Z,1010.97
2017-07-29T04:02:35.482Z,1010.97
2017-07-29T04:03:16.368Z,1010.94
2017-07-29T04:03:57.267Z,1010.97
2017-07-29T04:04:38.154Z,1010.93
2017-07-29T04:05:19.017Z,1010.91
2017-07-29T04:05:59.896Z,1010.9
2017-07-29T04:06:40.809Z,1010.92
2017-07-29T04:07:21.685Z,1010.85
2017-07-29T04:08:02.573Z,1010.89
2017-07-29T04:08:43.499Z,1010.86
2017-07-29T04:09:24.356Z,1010.83
2017-07-29T04:10:05.233Z,1010.8
2017-07-29T04:10:46.110Z,1010.77
2017-07-29T04:11:27.037Z,1010.79
2017-07-29T04:12:07.914Z,1010.8
2017-07-29T04:12:48.837Z,1010.75
2017-07-29T04:13:29.708Z,1010.72
2017-07-29T04:14:10.584Z,1010.73
2017-07-29T04:14:51.498Z,1010.73
2017-07-29T04:15:32.391Z,1010.75
2017-07-29T04:16:13.261Z,1010.74
2017-07-29T04:16:54.119Z,1010.74
2017-07-29T04:17:34.999Z,1010.71
2017-07-29T04:18:15.932Z,1010.7
2017-07-29T04:18:56.788Z,1010.69
2017-07-29T04:19:37.667Z,1010.68
2017-07-29T04:20:18.569Z,1010.67
2017-07-29T04:20:59.456Z,1010.65
2017-07-29T04:21:40.348Z,1010.71
2017-07-29T04:22:21.244Z,1010.68
2017-07-29T04:23:02.169Z,1010.66
2017-07-29T04:23:43.101Z,1010.65
2017-07-29T04:24:23.973Z,1010.67
2017-07-29T04:25:04.910Z,1010.7
2017-07-29T04:25:45.753Z,1010.62
2017-07-29T04:26:26.634Z,1010.64
2017-07-29T04:27:07.532Z,1010.6
2017-07-29T04:27:48.449Z,1010.56
2017-07-29T04:28:29.311Z,1010.56
2017-07-29T04:29:10.170Z,1010.58
2017-07-29T04:29:51.041Z,1010.54
2017-07-29T04:30:31.953Z,1010.58
2017-07-29T04:31:12.838Z,1010.58
2017-07-29T04:31:53.704Z,1010.61
2017-07-29T04:32:34.569Z,1010.59
2017-07-29T04:33:15.472Z,1010.63
2017-07-29T04:33:56.359Z,1010.62
2017-07-29T04:34:37.273Z,1010.65
2017-07-29T04:35:18.092Z,1010.6
2017-07-29T04:35:58.968Z,1010.65
2017-07-29T04:36:39.861Z,1010.69
2017-07-29T04:37:20.764Z,1010.68
2017-07-29T04:38:01.650Z,1010.67
2017-07-29T04:38:42.540Z,1010.66
2017-07-29T04:39:23.427Z,1010.66
2017-07-29T04:40:04.307Z,1010.66
2017-07-29T04:40:45.226Z,1010.66
2017-07-29T04:41:26.099Z,1010.61
2017-07-29T04:42:06.978Z,1010.56
2017-07-29T04:42:47.861Z,1010.53
2017-07-29T04:43:28.759Z,1010.53
2017-07-29T04:44:09.653Z,1010.48
2017-07-29T04:44:50.520Z,1010.5
2017-07-29T04:45:31.438Z,1010.49
2017-07-29T04:46:12.331Z,1010.51
2017-07-29T04:46:53.184Z,1010.53
2017-07-29T04:47:34.065Z,1010.54
2017-07-29T04:48:14.959Z,1010.59
2017-07-29T04:48:55.849Z,1010.57
2017-07-29T04:49:36.742Z,1010.6
2017-07-29T04:50:17.644Z,1010.65
2017-07-29T04:50:58.528Z,1010.69
2017-07-29T04:51:39.412Z,1010.73
2017-07-29T04:52:20.321Z,1010.8
2017-07-29T04:53:01.201Z,1010.83
2017-07-29T04:53:42.091Z,1010.91
2017-07-29T04:54:23.013Z,1010.85
2017-07-29T04:55:03.890Z,1010.92
2017-07-29T04:55:44.778Z,1010.91
2017-07-29T04:56:25.707Z,1010.95
2017-07-29T04:57:06.582Z,1010.95
2017-07-29T04:57:47.476Z,1010.99
2017-07-29T04:58:28.366Z,1010.98
2017-07-29T04:59:09.243Z,1010.97
2017-07-29T04:59:50.134Z,1010.99
2017-07-29T05:00:31.039Z,1010.98
2017-07-29T05:01:11.919Z,1011
2017-07-29T05:01:52.818Z,1010.98
2017-07-29T05:02:33.713Z,1010.98
2017-07-29T05:03:14.602Z,1010.95
2017-07-29T05:03:55.507Z,1010.99
2017-07-29T05:04:36.400Z,1011
2017-07-29T05:05:17.282Z,1011.05
2017-07-29T05:05:58.190Z,1011.01
2017-07-29T05:06:39.070Z,1011.02
2017-07-29T05:07:19.955Z,1010.98
2017-07-29T05:08:00.847Z,1011.01
2017-07-29T05:08:41.744Z,1010.99
2017-07-29T05:09:22.627Z,1011.02
2017-07-29T05:10:03.529Z,1011.03
2017-07-29T05:10:44.439Z,1010.98
2017-07-29T05:11:25.296Z,1011.01
2017-07-29T05:12:06.174Z,1010.98
2017-07-29T05:12:47.076Z,1011.02
2017-07-29T05:13:27.967Z,1010.97
2017-07-29T05:14:08.852Z,1010.99
2017-07-29T05:14:49.719Z,1010.98
2017-07-29T05:15:30.621Z,1010.97
2017-07-29T05:16:11.500Z,1010.97
2017-07-29T05:16:52.384Z,1010.95
2017-07-29T05:17:33.283Z,1010.93
2017-07-29T05:18:14.189Z,1010.93
2017-07-29T05:18:55.056Z,1010.96
2017-07-29T05:19:35.959Z,1010.91
2017-07-29T05:20:16.860Z,1010.93
2017-07-29T05:20:57.731Z,1010.93
2017-07-29T05:21:38.605Z,1010.88
2017-07-29T05:22:19.517Z,1010.9
2017-07-29T05:23:00.401Z,1010.9
2017-07-29T05:23:41.299Z,1010.84
2017-07-29T05:24:23.069Z,1010.94
2017-07-29T05:25:03.962Z,1010.97
2017-07-29T05:25:44.843Z,1010.99
2017-07-29T05:26:25.721Z,1010.94
2017-07-29T05:27:06.605Z,1010.99
2017-07-29T05:27:47.496Z,1010.98
2017-07-29T05:28:28.398Z,1011.02
2017-07-29T05:29:09.302Z,1011.01
2017-07-29T05:29:50.187Z,1011.01
2017-07-29T05:30:31.079Z,1011.04
2017-07-29T05:31:11.962Z,1011.03
2017-07-29T05:31:52.861Z,1010.99
2017-07-29T05:32:33.748Z,1011
2017-07-29T05:33:14.648Z,1010.98
2017-07-29T05:33:55.534Z,1011
2017-07-29T05:34:36.426Z,1011.03
2017-07-29T05:35:17.306Z,1010.97
2017-07-29T05:35:58.202Z,1011.01
2017-07-29T05:36:39.082Z,1011
2017-07-29T05:37:19.972Z,1010.96
2017-07-29T05:38:00.856Z,1010.96
2017-07-29T05:38:41.754Z,1010.94
2017-07-29T05:39:22.646Z,1010.98
2017-07-29T05:40:03.549Z,1011
2017-07-29T05:40:44.425Z,1010.98
2017-07-29T05:41:25.302Z,1010.97
2017-07-29T05:42:06.201Z,1010.93
2017-07-29T05:42:47.095Z,1010.95
2017-07-29T05:43:28.003Z,1010.92
2017-07-29T05:44:08.890Z,1010.87
2017-07-29T05:44:49.784Z,1010.91
2017-07-29T05:45:30.675Z,1010.89
2017-07-29T05:46:11.565Z,1010.87
2017-07-29T05:46:52.461Z,1010.88
2017-07-29T05:47:33.350Z,1010.87
2017-07-29T05:48:14.245Z,1010.82
2017-07-29T05:48:55.135Z,1010.83
2017-07-29T05:49:36.022Z,1010.9
2017-07-29T05:50:16.918Z,1010.89
2017-07-29T05:50:57.815Z,1010.83
2017-07-29T05:52:51.622Z,1010.88
2017-07-29T05:53:32.513Z,1010.9
2017-07-29T05:54:13.414Z,1010.88
2017-07-29T05:54:54.280Z,1010.87
2017-07-29T05:55:35.185Z,1010.88
2017-07-29T05:56:16.076Z,1010.9
2017-07-29T05:56:56.974Z,1010.94
2017-07-29T05:57:37.872Z,1010.92
2017-07-29T05:58:18.754Z,1010.96
2017-07-29T05:58:59.649Z,1010.92
2017-07-29T05:59:40.554Z,1010.92
2017-07-29T06:00:21.436Z,1010.91
2017-07-29T06:01:02.347Z,1010.91
2017-07-29T06:01:43.236Z,1010.89
2017-07-29T06:02:24.112Z,1010.9
2017-07-29T06:03:04.992Z,1010.88
2017-07-29T06:03:45.888Z,1010.83
2017-07-29T06:04:26.778Z,1010.82
2017-07-29T06:05:07.677Z,1010.83
2017-07-29T06:05:48.569Z,1010.83
2017-07-29T06:06:29.447Z,1010.77
2017-07-29T06:07:10.344Z,1010.77
2017-07-29T06:07:51.243Z,1010.74
2017-07-29T06:08:32.132Z,1010.74
2017-07-29T06:09:13.031Z,1010.7
2017-07-29T06:09:53.920Z,1010.68
2017-07-29T06:10:34.812Z,1010.65
2017-07-29T06:11:15.705Z,1010.61
2017-07-29T06:11:56.597Z,1010.6
2017-07-29T06:12:37.484Z,1010.58
2017-07-29T06:13:18.379Z,1010.53
2017-07-29T06:13:59.273Z,1010.51
2017-07-29T06:14:40.159Z,1010.52
2017-07-29T06:15:21.057Z,1010.51
2017-07-29T06:16:01.947Z,1010.5
2017-07-29T06:16:42.837Z,1010.5
2017-07-29T06:17:23.729Z,1010.52
2017-07-29T06:18:04.614Z,1010.55
2017-07-29T06:18:45.528Z,1010.6
2017-07-29T06:19:26.425Z,1010.64
2017-07-29T06:20:07.318Z,1010.67
2017-07-29T06:20:48.211Z,1010.73
2017-07-29T06:21:29.105Z,1010.79
2017-07-29T06:22:10.003Z,1010.83
2017-07-29T06:22:50.903Z,1010.87
2017-07-29T06:23:31.790Z,1010.86
2017-07-29T06:24:12.685Z,1010.92
2017-07-29T06:24:53.578Z,1010.93
2017-07-29T06:25:34.468Z,1010.88
2017-07-29T06:26:15.364Z,1010.93
2017-07-29T06:26:56.257Z,1010.93
2017-07-29T06:27:37.144Z,1010.95
2017-07-29T06:28:18.036Z,1010.89
2017-07-29T06:28:58.925Z,1010.94
2017-07-29T06:29:39.904Z,1010.92
2017-07-29T06:30:20.781Z,1010.92
2017-07-29T06:31:01.675Z,1010.9
2017-07-29T06:31:42.548Z,1010.88
2017-07-29T06:32:23.442Z,1010.86
2017-07-29T06:33:04.332Z,1010.86
2017-07-29T06:33:45.231Z,1010.82
2017-07-29T06:34:26.098Z,1010.79
2017-07-29T06:35:06.975Z,1010.78
2017-07-29T06:35:47.858Z,1010.76
2017-07-29T06:36:28.759Z,1010.73
2017-07-29T06:37:09.647Z,1010.67
2017-07-29T06:37:50.530Z,1010.69
2017-07-29T06:38:31.432Z,1010.69
2017-07-29T06:39:12.314Z,1010.72
2017-07-29T06:39:53.273Z,1010.72
2017-07-29T06:40:34.165Z,1010.76
2017-07-29T06:41:15.063Z,1010.77
2017-07-29T06:41:55.942Z,1010.76
2017-07-29T06:42:36.838Z,1010.76
2017-07-29T06:43:17.705Z,1010.79
2017-07-29T06:43:58.606Z,1010.78
2017-07-29T06:44:39.494Z,1010.8
2017-07-29T06:45:20.388Z,1010.81
2017-07-29T06:46:01.465Z,1010.76
2017-07-29T06:47:40.052Z,1010.76
2017-07-29T06:48:20.945Z,1010.74
2017-07-29T06:49:01.871Z,1010.71
2017-07-29T06:49:42.779Z,1010.78
2017-07-29T06:50:23.659Z,1010.78
2017-07-29T06:51:04.560Z,1010.8
2017-07-29T06:51:45.483Z,1010.82
2017-07-29T06:52:26.363Z,1010.8
2017-07-29T06:53:07.252Z,1010.76
2017-07-29T06:53:48.141Z,1010.76
2017-07-29T06:54:29.030Z,1010.73
2017-07-29T06:55:09.923Z,1010.71
2017-07-29T06:55:50.816Z,1010.74
2017-07-29T06:56:31.709Z,1010.77
2017-07-29T06:57:12.601Z,1010.72
2017-07-29T06:57:53.503Z,1010.71
2017-07-29T06:58:34.386Z,1010.74
2017-07-29T06:59:15.279Z,1010.72
2017-07-29T06:59:56.154Z,1010.74
2017-07-29T07:00:37.041Z,1010.75
2017-07-29T07:01:17.913Z,1010.75
2017-07-29T07:01:58.803Z,1010.73
2017-07-29T07:02:39.699Z,1010.74
2017-07-29T07:03:20.599Z,1010.75
2017-07-29T07:04:01.504Z,1010.71
2017-07-29T07:04:42.385Z,1010.76
2017-07-29T07:05:23.332Z,1010.74
2017-07-29T07:06:04.218Z,1010.74
2017-07-29T07:06:45.109Z,1010.71
2017-07-29T07:07:26.023Z,1010.74
2017-07-29T07:08:06.892Z,1010.72
2017-07-29T07:08:47.777Z,1010.76
2017-07-29T07:09:28.683Z,1010.76
2017-07-29T07:10:09.573Z,1010.73
2017-07-29T07:10:50.456Z,1010.77
2017-07-29T07:11:31.356Z,1010.78
2017-07-29T07:12:12.249Z,1010.74
2017-07-29T07:12:53.139Z,1010.73
2017-07-29T07:13:34.040Z,1010.73
2017-07-29T07:14:14.925Z,1010.74
2017-07-29T07:14:55.810Z,1010.77
2017-07-29T07:15:36.713Z,1010.73
2017-07-29T07:16:17.606Z,1010.79
2017-07-29T07:16:58.492Z,1010.77
2017-07-29T07:17:39.393Z,1010.81
2017-07-29T07:18:20.273Z,1010.77
2017-07-29T07:19:01.163Z,1010.8
2017-07-29T07:19:42.062Z,1010.77
2017-07-29T07:20:22.951Z,1010.79
2017-07-29T07:21:03.826Z,1010.78
2017-07-29T07:21:44.706Z,1010.75
2017-07-29T07:22:25.582Z,1010.77
2017-07-29T07:23:06.469Z,1010.75
2017-07-29T07:23:47.352Z,1010.74
2017-07-29T07:24:28.245Z,1010.74
2017-07-29T07:25:09.131Z,1010.73
2017-07-29T07:25:50.005Z,1010.71
2017-07-29T07:26:30.889Z,1010.75
2017-07-29T07:27:11.785Z,1010.75
2017-07-29T07:27:52.675Z,1010.74
2017-07-29T07:28:33.552Z,1010.71
2017-07-29T07:30:32.366Z,1010.66
2017-07-29T07:31:13.289Z,1010.67
2017-07-29T07:31:54.160Z,1010.67
2017-07-29T07:32:35.070Z,1010.66
2017-07-29T07:33:15.954Z,1010.63
2017-07-29T07:33:56.831Z,1010.69
2017-07-29T07:34:37.710Z,1010.69
2017-07-29T07:35:18.597Z,1010.68
2017-07-29T07:35:59.482Z,1010.66
2017-07-29T07:36:40.363Z,1010.62
2017-07-29T07:37:21.250Z,1010.67
2017-07-29T07:38:02.138Z,1010.67
2017-07-29T07:38:43.020Z,1010.68
2017-07-29T07:39:23.902Z,1010.64
2017-07-29T07:40:04.815Z,1010.69
2017-07-29T07:40:45.691Z,1010.7
2017-07-29T07:41:26.573Z,1010.73
2017-07-29T07:42:07.467Z,1010.76
2017-07-29T07:42:48.398Z,1010.77
2017-07-29T07:43:29.236Z,1010.74
2017-07-29T07:44:10.110Z,1010.78
2017-07-29T07:44:50.989Z,1010.79
2017-07-29T07:45:31.867Z,1010.78
2017-07-29T07:46:12.766Z,1010.8
2017-07-29T07:46:53.644Z,1010.79
2017-07-29T07:47:34.534Z,1010.78
2017-07-29T07:48:15.427Z,1010.75
2017-07-29T07:48:56.305Z,1010.76
2017-07-29T07:49:37.176Z,1010.71
2017-07-29T07:50:18.057Z,1010.7
2017-07-29T07:50:58.948Z,1010.68
2017-07-29T07:51:39.827Z,1010.67
2017-07-29T07:52:20.694Z,1010.68
2017-07-29T07:53:01.569Z,1010.68
2017-07-29T07:53:42.453Z,1010.7
2017-07-29T07:54:23.337Z,1010.72
2017-07-29T07:55:04.220Z,1010.67
2017-07-29T07:55:45.102Z,1010.64
2017-07-29T07:56:25.977Z,1010.63
2017-07-29T07:57:06.878Z,1010.62
2017-07-29T07:57:47.762Z,1010.62
2017-07-29T07:58:28.657Z,1010.66
2017-07-29T07:59:09.544Z,1010.64
2017-07-29T07:59:50.423Z,1010.61
2017-07-29T08:00:31.291Z,1010.63
2017-07-29T08:01:12.153Z,1010.6
2017-07-29T08:01:53.026Z,1010.56
2017-07-29T08:02:33.897Z,1010.55
2017-07-29T08:03:14.780Z,1010.55
2017-07-29T08:03:55.670Z,1010.54
2017-07-29T08:04:36.545Z,1010.52
2017-07-29T08:05:17.401Z,1010.51
2017-07-29T08:05:58.281Z,1010.54
2017-07-29T08:06:39.156Z,1010.48
2017-07-29T08:07:20.055Z,1010.47
2017-07-29T08:08:00.938Z,1010.49
2017-07-29T08:08:41.848Z,1010.52
2017-07-29T08:09:22.731Z,1010.45
2017-07-29T08:10:03.603Z,1010.51
2017-07-29T08:10:44.477Z,1010.47
2017-07-29T08:11:25.368Z,1010.47
2017-07-29T08:12:06.275Z,1010.49
2017-07-29T08:12:47.157Z,1010.45
2017-07-29T08:13:28.029Z,1010.5
2017-07-29T08:14:08.904Z,1010.47
2017-07-29T08:14:49.813Z,1010.49
2017-07-29T08:15:30.682Z,1010.49
2017-07-29T08:16:11.565Z,1010.45
2017-07-29T08:16:52.446Z,1010.43
2017-07-29T08:17:33.334Z,1010.4
2017-07-29T08:18:14.212Z,1010.42
2017-07-29T08:18:55.073Z,1010.41
2017-07-29T08:19:35.971Z,1010.38
2017-07-29T08:20:16.867Z,1010.37
2017-07-29T08:20:57.755Z,1010.37
2017-07-29T08:21:38.644Z,1010.38
2017-07-29T08:22:19.528Z,1010.34